Terminal Aerodrome Forecast
Issued by NWS

Home | Current Version | Previous Version | Text Only | Print | Product List | Glossary On
Versions: 1 2 3 4 5 6 7 8 9 10 11 12 13 14 15 16 17 18 19 20 21
000
FTUS43 KGRR 251740
TAFMKG
TAF
KMKG 251740Z 2518/2618 21009KT P6SM FEW250
     FM260200 18006KT P6SM VCTS BKN070CB
     FM260500 22005KT P6SM VCSH BKN050
     FM261400 22007KT 4SM BR BKN040=

USA.gov is the U.S. government's official web portal to all federal, state and local government web resources and services.